createdAt,value
2023-01-12T00:02:00.093Z,12.02
2023-01-12T00:04:28.027Z,11.27
2023-01-12T00:06:55.003Z,11.40
2023-01-12T00:09:22.025Z,11.48
2023-01-12T00:11:48.941Z,11.90
2023-01-12T00:14:15.883Z,11.68
2023-01-12T00:16:43.384Z,11.90
2023-01-12T00:19:22.208Z,11.32
2023-01-12T00:22:11.565Z,10.93
2023-01-12T00:24:44.336Z,11.55
2023-01-12T00:27:17.719Z,11.13
2023-01-12T00:29:44.837Z,11.60
2023-01-12T00:32:14.396Z,11.95
2023-01-12T00:34:42.028Z,11.27
2023-01-12T00:37:09.570Z,11.05
2023-01-12T00:39:40.362Z,10.65
2023-01-12T00:42:26.490Z,10.88
2023-01-12T00:45:11.888Z,11.23
2023-01-12T00:47:38.757Z,11.33
2023-01-12T00:50:05.942Z,11.02
2023-01-12T00:52:32.875Z,11.00
2023-01-12T00:55:00.047Z,11.52
2023-01-12T00:57:28.099Z,11.45
2023-01-12T00:59:56.820Z,11.63
2023-01-12T01:02:24.061Z,10.95
2023-01-12T01:04:51.455Z,11.60
2023-01-12T01:07:18.828Z,11.18
2023-01-12T01:09:45.859Z,10.60
2023-01-12T01:12:13.395Z,11.23
2023-01-12T01:14:40.347Z,11.95
2023-01-12T01:17:07.912Z,11.35
2023-01-12T01:19:34.912Z,11.77
2023-01-12T01:22:01.848Z,11.30
2023-01-12T01:24:29.235Z,11.02
2023-01-12T01:26:56.302Z,11.38
2023-01-12T01:29:23.230Z,11.57
2023-01-12T01:31:50.227Z,10.32
2023-01-12T01:34:17.968Z,11.00
2023-01-12T01:36:44.937Z,10.10
2023-01-12T01:39:11.934Z,11.13
2023-01-12T01:41:38.909Z,11.82
2023-01-12T01:44:30.595Z,11.32
2023-01-12T01:47:07.927Z,11.60
2023-01-12T01:49:48.296Z,12.45
2023-01-12T01:52:21.755Z,10.75
2023-01-12T01:54:56.052Z,12.00
2023-01-12T01:57:40.988Z,11.20
2023-01-12T02:00:10.488Z,10.50
2023-01-12T02:02:38.996Z,11.27
2023-01-12T02:05:06.499Z,11.60
2023-01-12T02:07:34.340Z,11.60
2023-01-12T02:10:02.231Z,11.25
2023-01-12T02:12:47.686Z,10.48
2023-01-12T02:15:33.807Z,10.57
2023-01-12T02:18:20.977Z,11.25
2023-01-12T02:20:54.832Z,11.02
2023-01-12T02:23:56.052Z,11.48
2023-01-12T02:26:48.781Z,10.93
2023-01-12T02:29:18.417Z,12.77
2023-01-12T02:32:06.500Z,12.60
2023-01-12T02:35:04.684Z,11.63
2023-01-12T02:37:45.231Z,11.48
2023-01-12T02:40:37.252Z,11.43
2023-01-12T02:43:13.981Z,11.32
2023-01-12T02:45:50.497Z,12.68
2023-01-12T02:48:37.849Z,11.70
2023-01-12T02:51:19.278Z,12.45
2023-01-12T02:53:51.040Z,11.93
2023-01-12T02:56:34.393Z,12.88
2023-01-12T02:59:07.370Z,12.20
2023-01-12T03:01:36.551Z,12.82
2023-01-12T03:04:07.766Z,12.07
2023-01-12T03:07:01.050Z,12.10
2023-01-12T03:09:36.919Z,13.02
2023-01-12T03:14:37.258Z,12.18
2023-01-12T03:17:09.724Z,12.98
2023-01-12T03:19:37.200Z,13.70
2023-01-12T03:22:08.754Z,12.30
2023-01-12T03:24:40.101Z,12.75
2023-01-12T03:27:14.402Z,13.18
2023-01-12T03:29:46.298Z,12.98
2023-01-12T03:32:13.400Z,12.35
2023-01-12T03:34:40.759Z,12.57
2023-01-12T03:37:14.778Z,13.82
2023-01-12T03:40:00.407Z,13.60
2023-01-12T03:42:38.162Z,12.38
2023-01-12T03:45:28.431Z,11.38
2023-01-12T03:48:22.054Z,12.63
2023-01-12T03:50:54.363Z,12.27
2023-01-12T03:53:23.460Z,13.23
2023-01-12T03:55:55.396Z,13.15
2023-01-12T03:58:23.929Z,13.98
2023-01-12T04:00:51.318Z,12.57
2023-01-12T04:03:18.644Z,12.55
2023-01-12T04:05:46.031Z,12.30
2023-01-12T04:08:16.173Z,13.15
2023-01-12T04:10:43.502Z,13.23
2023-01-12T04:13:10.762Z,12.77
2023-01-12T04:15:42.327Z,13.30
2023-01-12T04:18:10.674Z,12.98
2023-01-12T04:20:38.671Z,13.88
2023-01-12T04:23:09.815Z,13.30
2023-01-12T04:25:36.865Z,13.68
2023-01-12T04:28:04.379Z,14.35
2023-01-12T04:30:32.888Z,12.68
2023-01-12T04:33:00.713Z,12.73
2023-01-12T04:35:27.804Z,13.13
2023-01-12T04:37:55.055Z,12.95
2023-01-12T04:40:22.036Z,14.57
2023-01-12T04:43:08.724Z,12.43
2023-01-12T04:45:43.548Z,14.48
2023-01-12T04:48:12.704Z,13.25
2023-01-12T04:50:40.683Z,13.23
2023-01-12T04:53:10.073Z,13.70
2023-01-12T04:55:38.748Z,13.05
2023-01-12T04:58:06.169Z,12.68
2023-01-12T05:00:33.600Z,12.38
2023-01-12T05:03:03.721Z,12.77
2023-01-12T05:05:32.429Z,13.32
2023-01-12T05:08:19.829Z,13.30
2023-01-12T05:10:58.317Z,13.95
2023-01-12T05:13:30.802Z,14.35
2023-01-12T05:16:06.927Z,13.23
2023-01-12T05:18:33.905Z,13.77
2023-01-12T05:21:01.008Z,13.70
2023-01-12T05:23:28.036Z,13.05
2023-01-12T05:25:59.881Z,12.82
2023-01-12T05:28:30.846Z,11.43
2023-01-12T05:31:08.773Z,13.32
2023-01-12T05:33:37.131Z,13.38
2023-01-12T05:36:05.847Z,12.90
2023-01-12T05:38:33.126Z,13.18
2023-01-12T05:41:05.145Z,11.85
2023-01-12T05:43:50.420Z,13.23
2023-01-12T05:46:25.884Z,12.85
2023-01-12T05:48:54.713Z,11.75
2023-01-12T05:51:23.020Z,12.85
2023-01-12T05:53:50.109Z,12.35
2023-01-12T05:56:17.066Z,12.50
2023-01-12T05:58:48.398Z,12.60
2023-01-12T06:01:15.586Z,12.93
2023-01-12T06:03:42.636Z,12.13
2023-01-12T06:06:09.647Z,13.38
2023-01-12T06:08:36.628Z,13.15
2023-01-12T06:11:04.182Z,13.18
2023-01-12T06:13:50.882Z,12.38
2023-01-12T06:16:17.948Z,12.25
2023-01-12T06:18:44.934Z,12.45
2023-01-12T06:21:11.876Z,13.75
2023-01-12T06:23:39.031Z,14.25
2023-01-12T06:26:10.435Z,13.77
2023-01-12T06:28:39.194Z,14.23
2023-01-12T06:31:08.255Z,13.32
2023-01-12T06:33:36.230Z,13.20
2023-01-12T06:36:04.209Z,14.45
2023-01-12T06:38:32.828Z,14.02
2023-01-12T06:41:29.440Z,14.60
2023-01-12T06:43:57.485Z,14.38
2023-01-12T06:46:25.542Z,14.10
2023-01-12T06:48:54.632Z,14.20
2023-01-12T06:51:21.635Z,14.65
2023-01-12T06:53:48.666Z,14.45
2023-01-12T06:56:15.898Z,14.65
2023-01-12T06:58:43.509Z,15.07
2023-01-12T07:01:10.819Z,13.63
2023-01-12T07:03:37.888Z,15.00
2023-01-12T07:06:05.123Z,12.95
2023-01-12T07:08:32.720Z,13.15
2023-01-12T07:11:04.175Z,15.30
2023-01-12T07:13:31.735Z,14.35
2023-01-12T07:16:02.319Z,14.25
2023-01-12T07:18:31.139Z,14.82
2023-01-12T07:20:58.091Z,15.70
2023-01-12T07:23:25.349Z,15.25
2023-01-12T07:25:52.331Z,15.38
2023-01-12T07:28:19.344Z,15.60
2023-01-12T07:30:46.330Z,17.35
2023-01-12T07:33:15.769Z,15.82
2023-01-12T07:35:44.210Z,13.98
2023-01-12T07:38:11.258Z,14.95
2023-01-12T07:40:38.308Z,15.75
2023-01-12T07:43:08.176Z,14.00
2023-01-12T07:45:36.492Z,15.05
2023-01-12T07:48:03.770Z,14.43
2023-01-12T07:50:30.782Z,15.55
2023-01-12T07:53:02.078Z,14.27
2023-01-12T07:55:30.879Z,15.13
2023-01-12T07:58:06.557Z,14.30
2023-01-12T08:03:09.095Z,15.65
2023-01-12T08:05:37.247Z,14.07
2023-01-12T08:08:05.554Z,15.55
2023-01-12T08:10:32.552Z,13.73
2023-01-12T08:12:59.554Z,13.88
2023-01-12T08:15:27.943Z,13.98
2023-01-12T08:18:04.454Z,13.43
2023-01-12T08:20:34.924Z,13.77
2023-01-12T08:23:10.158Z,13.10
2023-01-12T08:25:44.586Z,14.25
2023-01-12T08:28:19.308Z,12.48
2023-01-12T08:30:48.796Z,13.75
2023-01-12T08:33:16.745Z,12.18
2023-01-12T08:35:46.276Z,12.25
2023-01-12T08:38:13.686Z,12.00
2023-01-12T08:40:59.539Z,11.93
2023-01-12T08:43:44.874Z,12.65
2023-01-12T08:46:12.085Z,11.85
2023-01-12T08:48:40.329Z,12.75
2023-01-12T08:51:08.234Z,12.18
2023-01-12T08:53:35.623Z,12.63
2023-01-12T08:56:03.255Z,12.45
2023-01-12T08:58:31.354Z,12.18
2023-01-12T09:01:05.435Z,12.40
2023-01-12T09:03:32.391Z,11.48
2023-01-12T09:05:59.410Z,11.20
2023-01-12T09:08:26.320Z,11.93
2023-01-12T09:10:53.372Z,11.82
2023-01-12T09:13:20.421Z,11.52
2023-01-12T09:16:01.087Z,11.40
2023-01-12T09:18:35.088Z,11.38
2023-01-12T09:21:07.516Z,10.43
2023-01-12T09:23:34.967Z,11.85
2023-01-12T09:26:04.971Z,11.55
2023-01-12T09:28:32.631Z,11.80
2023-01-12T09:31:06.977Z,11.77
2023-01-12T09:33:35.159Z,12.77
2023-01-12T09:36:13.386Z,11.45
2023-01-12T09:38:42.668Z,11.43
2023-01-12T09:41:12.714Z,12.52
2023-01-12T09:44:00.241Z,12.68
2023-01-12T09:46:57.463Z,13.02
2023-01-12T09:49:30.980Z,12.43
2023-01-12T09:51:57.905Z,13.23
2023-01-12T09:54:25.218Z,12.68
2023-01-12T09:57:29.040Z,12.77
2023-01-12T10:00:03.744Z,12.05
2023-01-12T10:02:43.296Z,11.98
2023-01-12T10:05:40.348Z,10.45
2023-01-12T10:08:21.161Z,12.10
2023-01-12T10:11:11.967Z,11.52
2023-01-12T10:13:47.257Z,11.88
2023-01-12T10:16:31.415Z,13.07
2023-01-12T10:19:03.048Z,13.95
2023-01-12T10:21:31.911Z,14.32
2023-01-12T10:23:58.976Z,15.70
2023-01-12T10:26:35.464Z,14.13
2023-01-12T10:29:02.736Z,15.60
2023-01-12T10:31:29.781Z,15.70
2023-01-12T10:34:10.036Z,15.35
2023-01-12T10:36:49.680Z,14.23
2023-01-12T10:39:30.893Z,15.07
2023-01-12T10:42:36.176Z,14.18
2023-01-12T10:45:22.353Z,15.02
2023-01-12T10:50:25.661Z,15.02
2023-01-12T10:53:06.275Z,16.27
2023-01-12T10:55:38.088Z,15.52
2023-01-12T10:58:05.574Z,14.82
2023-01-12T11:00:32.576Z,16.35
2023-01-12T11:02:59.662Z,16.17
2023-01-12T11:05:38.581Z,14.68
2023-01-12T11:08:27.521Z,13.80
2023-01-12T11:10:54.635Z,13.82
2023-01-12T11:13:39.958Z,14.55
2023-01-12T11:16:19.346Z,14.30
2023-01-12T11:19:08.281Z,15.23
2023-01-12T11:21:39.380Z,18.35
2023-01-12T11:24:30.943Z,15.27
2023-01-12T11:27:07.447Z,14.60
2023-01-12T11:29:34.425Z,13.98
2023-01-12T11:32:16.902Z,15.15
2023-01-12T11:35:05.656Z,15.48
2023-01-12T11:37:38.284Z,14.88
2023-01-12T11:40:22.112Z,15.45
2023-01-12T11:43:09.592Z,15.07
2023-01-12T11:45:52.328Z,16.08
2023-01-12T11:48:30.679Z,14.73
2023-01-12T11:50:59.346Z,15.95
2023-01-12T11:53:26.621Z,15.20
2023-01-12T11:56:31.202Z,14.20
2023-01-12T11:59:17.077Z,13.02
2023-01-12T12:02:06.784Z,15.15
2023-01-12T12:05:11.719Z,14.43
2023-01-12T12:07:45.266Z,13.52
2023-01-12T12:10:25.297Z,15.73
2023-01-12T12:13:10.868Z,15.88
2023-01-12T12:15:49.708Z,14.32
2023-01-12T12:18:23.352Z,14.98
2023-01-12T12:21:03.838Z,14.18
2023-01-12T12:23:37.237Z,14.43
2023-01-12T12:26:21.298Z,14.38
2023-01-12T12:29:24.252Z,14.73
2023-01-12T12:32:09.340Z,14.77
2023-01-12T12:35:10.243Z,15.13
2023-01-12T12:37:37.178Z,14.77
2023-01-12T12:40:18.309Z,16.00
2023-01-12T12:43:18.383Z,15.13
2023-01-12T12:46:00.605Z,15.38
2023-01-12T12:48:50.479Z,14.57
2023-01-12T12:51:18.420Z,14.35
2023-01-12T12:53:49.725Z,15.35
2023-01-12T12:56:20.334Z,14.32
2023-01-12T12:58:55.028Z,15.18
2023-01-12T13:01:23.007Z,16.40
2023-01-12T13:03:52.026Z,14.60
2023-01-12T13:06:29.870Z,14.48
2023-01-12T13:08:59.496Z,15.43
2023-01-12T13:11:54.714Z,14.57
2023-01-12T13:14:33.249Z,14.57
2023-01-12T13:17:19.817Z,14.05
2023-01-12T13:20:04.322Z,14.38
2023-01-12T13:25:22.269Z,13.18
2023-01-12T13:28:01.448Z,14.57
2023-01-12T13:30:31.413Z,14.20
2023-01-12T13:33:25.697Z,12.70
2023-01-12T13:35:52.809Z,13.55
2023-01-12T13:38:39.011Z,12.85
2023-01-12T13:43:40.117Z,15.27
2023-01-12T13:46:17.132Z,15.05
2023-01-12T13:48:49.022Z,16.00
2023-01-12T13:51:28.083Z,15.65
2023-01-12T13:54:06.975Z,16.73
2023-01-12T13:56:34.083Z,16.13
2023-01-12T13:59:04.111Z,15.75
2023-01-12T14:01:37.908Z,15.38
2023-01-12T14:04:21.527Z,14.93
2023-01-12T14:07:07.368Z,14.57
2023-01-12T14:09:40.603Z,15.07
2023-01-12T14:12:20.469Z,14.73
2023-01-12T14:15:43.852Z,15.10
2023-01-12T14:18:14.962Z,14.50
2023-01-12T14:21:37.894Z,15.23
2023-01-12T14:24:21.445Z,15.98
2023-01-12T14:26:48.567Z,16.25
2023-01-12T14:29:15.671Z,19.77
2023-01-12T14:31:45.545Z,18.83
2023-01-12T14:34:35.017Z,17.65
2023-01-12T14:37:04.310Z,16.42
2023-01-12T14:39:36.893Z,17.88
2023-01-12T14:42:23.346Z,15.98
2023-01-12T14:45:12.052Z,18.42
2023-01-12T14:47:39.638Z,18.25
2023-01-12T14:50:12.531Z,17.55
2023-01-12T14:52:41.946Z,17.85
2023-01-12T14:55:14.897Z,17.30
2023-01-12T14:57:42.739Z,16.85
2023-01-12T15:00:27.029Z,17.20
2023-01-12T15:02:59.575Z,17.73
2023-01-12T15:05:28.982Z,16.73
2023-01-12T15:07:55.886Z,15.88
2023-01-12T15:10:33.807Z,16.80
2023-01-12T15:13:28.826Z,18.60
2023-01-12T15:16:15.596Z,17.08
2023-01-12T15:19:01.617Z,17.55
2023-01-12T15:21:48.029Z,15.15
2023-01-12T15:24:47.721Z,17.02
2023-01-12T15:27:17.262Z,16.75
2023-01-12T15:29:44.498Z,16.90
2023-01-12T15:32:21.825Z,16.75
2023-01-12T15:34:49.033Z,17.13
2023-01-12T15:37:18.347Z,18.05
2023-01-12T15:39:46.370Z,16.40
2023-01-12T15:42:25.975Z,17.58
2023-01-12T15:44:54.074Z,17.50
2023-01-12T15:47:21.324Z,19.05
2023-01-12T15:49:51.145Z,17.63
2023-01-12T15:52:25.434Z,18.38
2023-01-12T15:54:53.594Z,18.17
2023-01-12T15:57:20.700Z,17.85
2023-01-12T15:59:47.667Z,19.40
2023-01-12T16:02:34.724Z,18.30
2023-01-12T16:05:03.069Z,20.83
2023-01-12T16:07:30.216Z,19.15
2023-01-12T16:09:57.799Z,19.52
2023-01-12T16:12:25.342Z,19.55
2023-01-12T16:14:55.063Z,19.95
2023-01-12T16:17:22.179Z,19.95
2023-01-12T16:19:49.205Z,18.52
2023-01-12T16:22:21.136Z,20.27
2023-01-12T16:24:49.227Z,20.27
2023-01-12T16:27:16.971Z,21.38
2023-01-12T16:29:44.556Z,20.52
2023-01-12T16:32:11.978Z,20.08
2023-01-12T16:34:39.735Z,20.00
2023-01-12T16:37:14.616Z,20.60
2023-01-12T16:39:42.419Z,19.92
2023-01-12T16:42:10.241Z,21.15
2023-01-12T16:44:38.754Z,20.50
2023-01-12T16:47:07.051Z,19.42
2023-01-12T16:49:37.514Z,19.92
2023-01-12T16:52:05.585Z,21.65
2023-01-12T16:54:33.473Z,21.77
2023-01-12T16:57:00.556Z,21.45
2023-01-12T16:59:28.684Z,20.48
2023-01-12T17:01:55.924Z,20.90
2023-01-12T17:04:23.378Z,21.50
2023-01-12T17:06:50.533Z,22.20
2023-01-12T17:09:17.879Z,23.10
2023-01-12T17:11:45.102Z,21.77
2023-01-12T17:14:25.114Z,21.52
2023-01-12T17:16:54.782Z,21.45
2023-01-12T17:19:26.288Z,22.45
2023-01-12T17:21:54.902Z,21.58
2023-01-12T17:24:22.657Z,22.48
2023-01-12T17:26:52.298Z,22.42
2023-01-12T17:29:20.929Z,21.60
2023-01-12T17:31:48.393Z,21.75
2023-01-12T17:34:16.170Z,22.85
2023-01-12T17:36:43.719Z,21.98
2023-01-12T17:39:11.082Z,24.85
2023-01-12T17:41:56.559Z,24.35
2023-01-12T17:44:23.593Z,22.83
2023-01-12T17:46:50.656Z,23.65
2023-01-12T17:49:19.054Z,22.67
2023-01-12T17:51:46.055Z,23.67
2023-01-12T17:54:16.943Z,24.42
2023-01-12T17:56:44.366Z,24.27
2023-01-12T17:59:18.198Z,23.30
2023-01-12T18:01:46.593Z,24.52
2023-01-12T18:04:14.379Z,24.08
2023-01-12T18:06:42.091Z,24.20
2023-01-12T18:09:10.668Z,22.70
2023-01-12T18:11:39.035Z,23.48
2023-01-12T18:14:06.617Z,23.25
2023-01-12T18:16:34.597Z,23.83
2023-01-12T18:19:06.488Z,24.73
2023-01-12T18:21:34.505Z,24.15
2023-01-12T18:24:02.505Z,23.75
2023-01-12T18:26:33.611Z,23.00
2023-01-12T18:29:01.804Z,24.48
2023-01-12T18:31:37.367Z,23.38
2023-01-12T18:34:06.092Z,22.25
2023-01-12T18:36:35.435Z,23.80
2023-01-12T18:39:02.626Z,24.65
2023-01-12T18:41:48.323Z,22.92
2023-01-12T18:44:15.301Z,24.08
2023-01-12T18:47:02.215Z,23.05
2023-01-12T18:49:31.710Z,23.60
2023-01-12T18:52:17.411Z,24.13
2023-01-12T18:54:47.262Z,21.85
2023-01-12T18:57:19.176Z,22.73
2023-01-12T18:59:51.706Z,23.80
2023-01-12T19:02:19.707Z,21.77
2023-01-12T19:04:50.312Z,24.45
2023-01-12T19:07:28.233Z,23.20
2023-01-12T19:09:56.076Z,23.90
2023-01-12T19:12:23.212Z,23.83
2023-01-12T19:15:09.066Z,24.98
2023-01-12T19:17:40.400Z,25.23
2023-01-12T19:20:15.963Z,22.08
2023-01-12T19:23:01.787Z,24.77
2023-01-12T19:25:47.439Z,24.73
2023-01-12T19:28:35.956Z,26.33
2023-01-12T19:31:06.247Z,25.38
2023-01-12T19:33:34.487Z,23.05
2023-01-12T19:36:10.302Z,26.38
2023-01-12T19:41:33.188Z,25.33
2023-01-12T19:44:05.155Z,24.98
2023-01-12T19:46:33.255Z,25.67
2023-01-12T19:49:00.684Z,25.27
2023-01-12T19:51:27.714Z,25.60
2023-01-12T19:53:55.536Z,25.52
2023-01-12T19:56:22.490Z,25.58
2023-01-12T19:58:50.717Z,26.13
2023-01-12T20:01:24.163Z,25.77
2023-01-12T20:03:51.265Z,28.27
2023-01-12T20:06:18.323Z,26.30
2023-01-12T20:08:45.350Z,25.73
2023-01-12T20:11:12.723Z,25.08
2023-01-12T20:13:39.796Z,26.35
2023-01-12T20:16:08.381Z,27.83
2023-01-12T20:18:35.754Z,26.48
2023-01-12T20:21:07.916Z,25.45
2023-01-12T20:23:34.836Z,26.98
2023-01-12T20:26:05.010Z,25.75
2023-01-12T20:28:31.993Z,26.77
2023-01-12T20:30:59.466Z,26.80
2023-01-12T20:33:28.021Z,26.35
2023-01-12T20:35:55.276Z,26.73
2023-01-12T20:38:22.734Z,27.13
2023-01-12T20:40:49.971Z,26.58
2023-01-12T20:43:18.694Z,26.48
2023-01-12T20:45:46.006Z,27.92
2023-01-12T20:48:14.130Z,26.15
2023-01-12T20:50:46.333Z,27.90
2023-01-12T20:53:15.753Z,27.33
2023-01-12T20:55:49.935Z,26.77
2023-01-12T20:58:19.217Z,28.13
2023-01-12T21:00:47.786Z,27.25
2023-01-12T21:03:15.221Z,26.27
2023-01-12T21:05:47.577Z,27.42
2023-01-12T21:08:15.657Z,26.70
2023-01-12T21:10:50.675Z,26.30
2023-01-12T21:13:18.235Z,26.42
2023-01-12T21:15:45.520Z,26.20
2023-01-12T21:18:13.533Z,27.95
2023-01-12T21:20:43.421Z,27.05
2023-01-12T21:23:11.461Z,25.70
2023-01-12T21:25:45.359Z,27.52
2023-01-12T21:28:12.579Z,27.33
2023-01-12T21:30:40.778Z,27.23
2023-01-12T21:33:07.803Z,27.45
2023-01-12T21:35:35.092Z,27.23
2023-01-12T21:38:02.979Z,27.83
2023-01-12T21:40:30.558Z,27.27
2023-01-12T21:43:10.274Z,27.95
2023-01-12T21:45:38.164Z,29.52
2023-01-12T21:48:05.619Z,30.88
2023-01-12T21:50:33.265Z,28.92
2023-01-12T21:53:02.634Z,30.05
2023-01-12T21:55:31.373Z,30.58
2023-01-12T21:57:59.302Z,31.98
2023-01-12T22:00:26.590Z,30.80
2023-01-12T22:02:55.026Z,32.72
2023-01-12T22:05:23.602Z,32.65
2023-01-12T22:07:51.714Z,32.85
2023-01-12T22:10:19.412Z,33.10
2023-01-12T22:12:54.519Z,33.60
2023-01-12T22:15:22.838Z,34.45
2023-01-12T22:17:51.494Z,34.08
2023-01-12T22:20:18.731Z,35.78
2023-01-12T22:22:45.756Z,36.13
2023-01-12T22:25:14.524Z,35.03
2023-01-12T22:27:42.195Z,33.30
2023-01-12T22:30:17.926Z,36.40
2023-01-12T22:32:45.326Z,35.67
2023-01-12T22:35:13.017Z,36.40
2023-01-12T22:37:41.116Z,33.45
2023-01-12T22:40:10.383Z,35.72
2023-01-12T22:42:56.327Z,32.90
2023-01-12T22:45:23.656Z,34.33
2023-01-12T22:47:55.029Z,33.80
2023-01-12T22:50:23.418Z,32.25
2023-01-12T22:52:52.499Z,33.88
2023-01-12T22:55:20.999Z,80.47
2023-01-12T22:57:48.296Z,35.53
2023-01-12T23:00:18.260Z,36.85
2023-01-12T23:03:01.417Z,35.88
2023-01-12T23:05:36.138Z,36.58
2023-01-12T23:08:06.996Z,35.95
2023-01-12T23:10:35.001Z,35.28
2023-01-12T23:13:11.610Z,34.42
2023-01-12T23:15:39.214Z,38.75
2023-01-12T23:18:07.172Z,35.70
2023-01-12T23:20:36.130Z,37.83
2023-01-12T23:23:04.150Z,38.67
2023-01-12T23:25:34.907Z,38.53
2023-01-12T23:28:02.339Z,36.47
2023-01-12T23:30:30.749Z,40.80
2023-01-12T23:33:04.111Z,38.55
2023-01-12T23:35:36.915Z,38.22
2023-01-12T23:38:04.098Z,36.70
2023-01-12T23:40:31.571Z,37.05
2023-01-12T23:42:59.510Z,36.15
2023-01-12T23:45:26.477Z,38.25
2023-01-12T23:47:53.528Z,36.70
2023-01-12T23:50:21.057Z,40.60
2023-01-12T23:52:50.080Z,39.25
2023-01-12T23:55:17.819Z,37.13
2023-01-12T23:57:48.361Z,37.95
